Time;durP1;ratioP1;P1;durP2;ratioP2;P2;SDS_P1;SDS_P2;PMS_P1;PMS_P2;Temp;Humidity;BMP_temperature;BMP_pressure;BME280_temperature;BME280_humidity;BME280_pressure;Samples;Min_cycle;Max_cycle;Signal;HPM_P1;HPM_P2
2022/04/04 00:02:14;;;;;;;1.80;1.65;;;;;;;15.78;36.02;93403.75;5049228;28;20037;-89
2022/04/04 00:04:40;;;;;;;1.88;1.60;;;;;;;15.77;35.78;93396.81;5048117;28;20033;-88
2022/04/04 00:07:08;;;;;;;1.60;1.50;;;;;;;15.75;35.80;93391.84;5013106;28;20559;-87
2022/04/04 00:09:33;;;;;;;1.65;1.55;;;;;;;15.79;35.85;93388.16;5046378;28;20510;-87
2022/04/04 00:11:59;;;;;;;1.40;1.30;;;;;;;15.75;35.73;93394.59;5013421;28;20067;-88
2022/04/04 00:14:24;;;;;;;1.55;1.30;;;;;;;15.76;36.01;93396.06;5013522;28;20033;-87
2022/04/04 00:16:50;;;;;;;1.98;1.60;;;;;;;15.78;35.78;93395.59;5030074;28;20098;-87
2022/04/04 00:19:15;;;;;;;2.35;1.40;;;;;;;15.78;35.39;93395.59;5029252;28;20037;-87
2022/04/04 00:21:42;;;;;;;1.80;1.45;;;;;;;15.78;35.73;93395.59;5031784;28;20449;-87
2022/04/04 00:24:08;;;;;;;1.98;1.67;;;;;;;15.74;35.99;93395.81;5029375;28;20021;-89
2022/04/04 00:26:34;;;;;;;2.33;1.40;;;;;;;15.74;36.00;93392.34;5029414;28;20458;-87
2022/04/04 00:28:59;;;;;;;1.67;1.55;;;;;;;15.74;35.62;93393.09;5046485;28;20037;-86
2022/04/04 00:31:25;;;;;;;1.73;1.60;;;;;;;15.74;35.70;93397.81;5045322;28;20067;-88
2022/04/04 00:33:50;;;;;;;1.50;1.40;;;;;;;15.73;35.68;93396.31;5046538;28;20033;-87
2022/04/04 00:36:16;;;;;;;1.60;1.40;;;;;;;15.74;35.75;93395.81;5045417;28;20054;-88
2022/04/04 00:38:41;;;;;;;1.70;1.40;;;;;;;15.74;35.55;93392.34;5046499;28;20491;-86
2022/04/04 00:41:10;;;;;;;1.38;1.27;;;;;;;15.77;35.82;93389.38;5035075;28;20049;-88
2022/04/04 00:43:35;;;;;;;1.35;1.25;;;;;;;15.72;35.58;93384.66;5060664;28;20047;-88
2022/04/04 00:46:01;;;;;;;1.30;1.20;;;;;;;15.75;36.02;93374.75;5056920;28;20047;-87
2022/04/04 00:48:26;;;;;;;1.80;1.50;;;;;;;15.74;35.64;93382.19;5045518;28;20419;-87
2022/04/04 00:50:51;;;;;;;2.03;1.58;;;;;;;15.76;35.76;93382.44;5029777;28;20044;-87
2022/04/04 00:53:17;;;;;;;2.00;1.80;;;;;;;15.73;35.94;93380.72;5044678;28;20037;-88
2022/04/04 00:55:42;;;;;;;1.42;1.30;;;;;;;15.77;35.59;93380.47;5043337;28;20522;-87
2022/04/04 00:58:08;;;;;;;1.30;1.20;;;;;;;15.74;36.02;93376.75;5015266;28;20051;-87
2022/04/04 01:00:33;;;;;;;1.75;1.60;;;;;;;15.72;35.54;93384.66;5029907;28;20033;-88
2022/04/04 01:02:58;;;;;;;1.42;1.27;;;;;;;15.79;35.65;93382.69;5045778;28;20068;-89
2022/04/04 01:05:24;;;;;;;1.77;1.55;;;;;;;15.75;35.75;93386.41;5035179;28;20036;-88
2022/04/04 01:07:49;;;;;;;1.42;1.00;;;;;;;15.77;35.79;93377.75;5048766;28;20232;-87
2022/04/04 01:10:15;;;;;;;2.13;1.60;;;;;;;15.74;35.68;93381.44;5048705;28;20044;-89
2022/04/04 01:12:51;;;;;;;1.80;1.67;;;;;;;15.78;35.63;93373.78;5032126;28;20256;-87
2022/04/04 01:15:17;;;;;;;1.55;1.42;;;;;;;15.74;35.87;93376.75;5048924;28;20044;-89
2022/04/04 01:17:43;;;;;;;1.63;1.40;;;;;;;15.74;35.62;93376.00;5033471;28;20051;-87
2022/04/04 01:20:09;;;;;;;1.50;1.40;;;;;;;15.71;35.67;93374.25;5029229;28;20040;-86
2022/04/04 01:22:35;;;;;;;2.05;1.85;;;;;;;15.75;35.50;93361.13;5029518;28;20045;-88
2022/04/04 01:25:04;;;;;;;1.20;1.10;;;;;;;15.75;35.65;93366.59;5045502;28;20087;-87
2022/04/04 01:27:29;;;;;;;1.45;1.35;;;;;;;15.73;35.68;93367.06;5028682;28;20151;-87
2022/04/04 01:29:55;;;;;;;1.67;1.42;;;;;;;15.78;35.59;93360.16;5029225;28;20033;-87
2022/04/04 01:32:20;;;;;;;1.88;1.60;;;;;;;15.77;35.45;93362.13;5027995;28;20037;-88
2022/04/04 01:34:46;;;;;;;1.13;1.02;;;;;;;15.74;35.77;93362.38;5030163;28;20040;-88
2022/04/04 01:37:11;;;;;;;1.40;1.30;;;;;;;15.75;35.79;93358.41;5048348;28;20052;-89
2022/04/04 01:39:37;;;;;;;1.65;1.40;;;;;;;15.76;35.53;93349.75;5049465;28;20044;-87
2022/04/04 01:42:02;;;;;;;1.42;1.20;;;;;;;15.74;35.54;93344.03;5031940;28;20051;-88
2022/04/04 01:44:28;;;;;;;1.60;1.50;;;;;;;15.75;35.54;93350.97;5028609;28;20072;-88
2022/04/04 01:46:54;;;;;;;1.50;1.27;;;;;;;15.71;35.83;93353.19;5061048;28;20051;-88
2022/04/04 01:49:20;;;;;;;1.40;1.30;;;;;;;15.71;35.71;93352.44;5031570;28;20366;-87
2022/04/04 01:51:46;;;;;;;1.60;1.40;;;;;;;15.74;35.71;93356.91;5066094;28;20063;-88
2022/04/04 01:54:11;;;;;;;2.20;1.60;;;;;;;15.72;35.69;93348.50;5031419;28;20028;-87
2022/04/04 01:56:37;;;;;;;1.42;1.33;;;;;;;15.70;35.65;93359.16;5051293;28;20048;-88
2022/04/04 01:59:02;;;;;;;1.60;1.45;;;;;;;15.72;35.62;93349.25;5035061;28;20086;-88
2022/04/04 02:01:28;;;;;;;1.50;1.40;;;;;;;15.72;35.72;93348.50;5052362;28;20204;-88
2022/04/04 02:03:55;;;;;;;1.45;1.30;;;;;;;15.70;35.56;93346.25;5031817;28;20455;-89
2022/04/04 02:06:20;;;;;;;1.55;1.38;;;;;;;15.69;35.17;93344.03;5031761;28;20119;-88
2022/04/04 02:08:46;;;;;;;1.27;1.17;;;;;;;15.73;35.82;93350.72;5031973;28;20041;-88
2022/04/04 02:11:13;;;;;;;1.60;1.50;;;;;;;15.72;35.67;93346.50;5031571;28;20037;-88
2022/04/04 02:13:39;;;;;;;1.80;1.60;;;;;;;15.69;35.71;93342.03;5032215;28;20056;-87
2022/04/04 02:16:04;;;;;;;2.28;1.50;;;;;;;15.71;35.41;93349.72;5015092;28;20060;-87
2022/04/04 02:18:31;;;;;;;1.90;1.60;;;;;;;15.70;35.44;93342.78;5032398;28;20345;-87
2022/04/04 02:20:56;;;;;;;1.67;1.45;;;;;;;15.73;35.66;93339.81;5015640;28;20057;-87
2022/04/04 02:23:24;;;;;;;1.50;1.40;;;;;;;15.73;35.40;93345.28;5034543;28;20048;-88
2022/04/04 02:25:50;;;;;;;1.52;1.42;;;;;;;15.70;35.39;93343.53;5031213;28;20521;-89
2022/04/04 02:28:15;;;;;;;1.70;1.50;;;;;;;15.71;35.74;93342.28;5031274;28;20041;-88
2022/04/04 02:30:41;;;;;;;1.48;1.38;;;;;;;15.75;35.46;93352.97;5032313;28;20505;-87
2022/04/04 02:33:07;;;;;;;1.70;1.60;;;;;;;15.70;35.11;93340.06;5031548;28;20048;-88
2022/04/04 02:35:33;;;;;;;1.48;1.30;;;;;;;15.73;35.46;93330.91;5039740;28;20159;-87
2022/04/04 02:37:58;;;;;;;1.55;1.45;;;;;;;15.70;35.55;93329.16;5051804;28;20103;-87
2022/04/04 02:40:24;;;;;;;2.33;1.55;;;;;;;15.68;35.45;93331.63;5067964;28;20032;-87
2022/04/04 02:42:49;;;;;;;1.30;1.20;;;;;;;15.71;35.43;93327.94;5051769;28;20502;-88
2022/04/04 02:45:15;;;;;;;1.38;1.27;;;;;;;15.69;35.53;93322.22;5065106;28;20044;-87
2022/04/04 02:47:41;;;;;;;1.83;1.40;;;;;;;15.71;35.42;93320.50;5014914;28;20043;-88
2022/04/04 02:50:08;;;;;;;1.55;1.27;;;;;;;15.72;35.63;93327.44;5014671;28;20025;-88
2022/04/04 02:52:33;;;;;;;1.35;1.20;;;;;;;15.70;35.75;93324.47;5015489;28;20040;-87
2022/04/04 02:54:58;;;;;;;2.00;1.50;;;;;;;15.70;35.54;93326.44;5031769;28;20056;-88
2022/04/04 02:57:24;;;;;;;1.30;1.20;;;;;;;15.71;35.37;93330.66;5050777;28;20521;-87
2022/04/04 02:59:49;;;;;;;1.40;1.30;;;;;;;15.71;35.50;93323.22;5051210;28;20060;-89
2022/04/04 03:02:15;;;;;;;1.50;1.40;;;;;;;15.72;35.43;93330.16;5051052;28;20033;-88
2022/04/04 03:04:42;;;;;;;1.45;1.23;;;;;;;15.68;35.36;93328.91;5051159;28;20033;-87
2022/04/04 03:07:08;;;;;;;1.77;1.50;;;;;;;15.69;35.51;93322.97;5055861;28;20044;-87
2022/04/04 03:09:33;;;;;;;1.30;1.20;;;;;;;15.70;35.10;93329.91;5031036;28;20521;-88
2022/04/04 03:11:58;;;;;;;2.03;1.58;;;;;;;15.71;35.37;93320.50;5031148;28;20295;-88
2022/04/04 03:14:24;;;;;;;1.60;1.50;;;;;;;15.74;35.24;93329.66;5030643;28;20118;-88
2022/04/04 03:16:50;;;;;;;1.83;1.70;;;;;;;15.69;35.31;93320.25;5048040;28;20048;-88
2022/04/04 03:19:16;;;;;;;1.58;1.30;;;;;;;15.69;35.26;93322.97;5013916;28;20127;-88
2022/04/04 03:21:41;;;;;;;1.83;1.63;;;;;;;15.69;35.25;93314.78;5014802;28;20037;-87
2022/04/04 03:24:06;;;;;;;2.20;1.58;;;;;;;15.67;35.13;93314.53;5030640;28;20052;-88
2022/04/04 03:26:32;;;;;;;1.58;1.33;;;;;;;15.69;35.36;93314.78;5047600;28;20135;-88
2022/04/04 03:28:58;;;;;;;1.30;1.20;;;;;;;15.68;35.29;93315.28;5031282;28;20090;-88
2022/04/04 03:31:23;;;;;;;2.28;1.48;;;;;;;15.69;35.28;93308.59;5030342;28;20099;-88
2022/04/04 03:33:49;;;;;;;1.50;1.40;;;;;;;15.69;35.31;93306.63;5031275;28;20041;-87
2022/04/04 03:36:14;;;;;;;1.85;1.65;;;;;;;15.69;35.22;93314.06;5030140;28;20037;-88
2022/04/04 03:38:39;;;;;;;1.45;1.33;;;;;;;15.69;35.23;93317.53;5067454;28;20036;-88
2022/04/04 03:41:05;;;;;;;1.58;1.30;;;;;;;15.71;35.20;93315.03;5050346;28;20032;-88
2022/04/04 03:43:30;;;;;;;1.60;1.30;;;;;;;15.74;35.54;93314.06;5053598;28;20671;-88
2022/04/04 03:45:56;;;;;;;1.30;1.20;;;;;;;15.73;35.77;93301.66;5078257;28;20044;-88
2022/04/04 03:48:21;;;;;;;1.77;1.50;;;;;;;15.71;35.58;93306.13;5049706;28;20067;-87
2022/04/04 03:50:47;;;;;;;2.63;1.30;;;;;;;15.68;35.55;93307.84;5050891;28;20036;-86
2022/04/04 03:53:12;;;;;;;2.67;1.38;;;;;;;15.67;35.47;93305.63;5051375;28;20037;-87
2022/04/04 03:55:39;;;;;;;1.25;1.15;;;;;;;15.69;35.64;93303.16;5066724;28;20135;-88
2022/04/04 03:58:11;;;;;;;1.30;1.20;;;;;;;15.69;35.22;93305.88;5033686;28;20036;-90
2022/04/04 04:00:38;;;;;;;1.60;1.30;;;;;;;15.67;35.24;93305.63;5053194;28;20037;-89
2022/04/04 04:03:03;;;;;;;1.58;1.48;;;;;;;15.72;35.30;93310.34;5041237;28;20060;-91
2022/04/04 04:05:28;;;;;;;1.67;1.40;;;;;;;15.65;35.48;93300.66;5057293;28;20052;-89
2022/04/04 04:07:54;;;;;;;1.40;1.30;;;;;;;15.67;35.23;93297.44;5039642;28;20032;-90
2022/04/04 04:10:20;;;;;;;3.92;1.38;;;;;;;15.64;35.12;93288.28;5039381;28;20043;-88
2022/04/04 04:12:45;;;;;;;2.92;1.55;;;;;;;15.66;35.27;93293.97;5054071;28;20033;-89
2022/04/04 04:15:23;;;;;;;7.35;2.00;;;;;;;15.67;35.24;93286.56;5039852;28;20057;-90
2022/04/04 04:17:52;;;;;;;8.70;3.42;;;;;;;15.67;35.00;93290.03;5046083;28;20064;-90
2022/04/04 04:20:19;;;;;;;8.88;3.15;;;;;;;15.67;34.93;93286.56;5030057;28;20052;-90
2022/04/04 04:22:45;;;;;;;16.58;3.85;;;;;;;15.67;35.42;93284.56;5025199;28;20587;-89
2022/04/04 04:25:11;;;;;;;15.70;4.57;;;;;;;15.70;34.85;93285.56;5040124;28;20422;-89
2022/04/04 04:27:37;;;;;;;14.25;5.32;;;;;;;15.70;34.95;93282.84;5057179;28;20037;-89
2022/04/04 04:30:03;;;;;;;28.48;7.13;;;;;;;15.67;34.80;93284.56;5021637;28;20037;-89
2022/04/04 04:32:30;;;;;;;39.85;9.75;;;;;;;15.65;35.74;93289.03;5039595;28;20033;-89
2022/04/04 04:34:57;;;;;;;43.10;10.05;;;;;;;15.66;35.50;93280.34;5063929;28;20033;-88
2022/04/04 04:37:22;;;;;;;131.80;84.50;;;;;;;15.76;35.29;93286.31;5032176;28;20048;-89
2022/04/04 04:39:48;;;;;;;72.38;25.65;;;;;;;15.79;35.59;93282.59;5044655;28;20047;-87
2022/04/04 04:42:13;;;;;;;90.07;27.15;;;;;;;15.84;35.18;93281.09;5052608;28;20648;-91
2022/04/04 04:44:39;;;;;;;136.85;67.78;;;;;;;15.83;34.98;93277.63;5050354;28;20028;-87
2022/04/04 04:47:05;;;;;;;119.30;37.63;;;;;;;15.89;35.00;93286.53;5071141;28;20045;-87
2022/04/04 04:49:32;;;;;;;99.75;34.13;;;;;;;15.88;35.04;93284.31;5055062;28;20040;-91
2022/04/04 04:51:57;;;;;;;126.07;40.78;;;;;;;15.87;34.85;93282.81;5039013;28;20036;-90
2022/04/04 04:54:23;;;;;;;113.70;33.72;;;;;;;15.86;35.08;93281.34;5047042;28;20037;-87
2022/04/04 04:56:48;;;;;;;77.45;25.38;;;;;;;15.73;31.38;93288.03;5050076;28;20154;-89
2022/04/04 04:59:16;;;;;;;92.60;25.83;;;;;;;15.52;28.23;93292.22;5055658;28;20525;-92
2022/04/04 05:01:42;;;;;;;82.20;29.60;;;;;;;15.27;26.48;93293.94;5034614;28;20073;-89
2022/04/04 05:04:07;;;;;;;141.95;35.92;;;;;;;15.27;26.68;93291.22;5056547;28;20048;-88
2022/04/04 05:06:34;;;;;;;224.45;54.22;;;;;;;15.27;25.91;93293.94;5051697;28;20071;-89
2022/04/04 05:09:00;;;;;;;288.90;63.47;;;;;;;15.36;26.49;93287.50;5062859;28;20049;-90
2022/04/04 05:11:26;;;;;;;371.38;82.80;;;;;;;15.32;26.64;93290.47;5034428;28;20131;-87
2022/04/04 05:13:51;;;;;;;253.40;67.55;;;;;;;15.36;26.92;93288.25;5072887;28;20503;-86
2022/04/04 05:16:18;;;;;;;174.98;51.67;;;;;;;15.43;28.67;93297.91;5073056;28;20044;-89
2022/04/04 05:18:44;;;;;;;162.70;49.78;;;;;;;15.47;27.66;93286.75;5050649;28;20044;-88
2022/04/04 05:21:10;;;;;;;193.85;53.78;;;;;;;15.52;29.33;93288.75;5050339;28;20124;-86
2022/04/04 05:23:36;;;;;;;142.32;52.55;;;;;;;15.56;29.81;93289.28;5065645;28;20048;-87
2022/04/04 05:26:01;;;;;;;142.10;55.45;;;;;;;15.60;30.85;93293.22;5044675;28;20094;-87
2022/04/04 05:28:26;;;;;;;118.75;49.13;;;;;;;15.63;31.64;93291.50;5029181;28;20041;-86
2022/04/04 05:30:52;;;;;;;148.38;61.53;;;;;;;15.68;31.26;93299.69;5049695;28;20032;-87
2022/04/04 05:33:17;;;;;;;94.97;45.13;;;;;;;15.63;31.43;93292.25;5059269;28;20041;-87
2022/04/04 05:35:43;;;;;;;111.93;54.25;;;;;;;15.62;31.25;93287.28;5045860;28;20048;-86
2022/04/04 05:38:08;;;;;;;140.32;63.00;;;;;;;15.71;31.27;93287.06;5050512;28;20029;-87
2022/04/04 05:40:34;;;;;;;135.55;59.97;;;;;;;15.73;31.18;93287.31;5025198;28;20047;-87
2022/04/04 05:43:00;;;;;;;141.48;43.97;;;;;;;15.66;28.38;93291.25;5062932;28;20079;-89
2022/04/04 05:45:26;;;;;;;116.85;37.58;;;;;;;15.46;28.22;93293.44;5034660;28;20487;-89
2022/04/04 05:47:52;;;;;;;88.95;33.65;;;;;;;15.49;27.96;93293.22;5032282;28;20033;-89
2022/04/04 05:50:18;;;;;;;147.63;44.92;;;;;;;15.54;27.47;93295.19;5050404;28;20032;-90
2022/04/04 05:52:44;;;;;;;243.52;58.88;;;;;;;15.56;28.19;93295.47;5040969;28;20035;-94
2022/04/04 05:55:12;;;;;;;169.35;56.78;;;;;;;15.61;28.93;93302.16;5038852;28;20037;-91
2022/04/04 05:57:39;;;;;;;178.68;69.45;;;;;;;15.63;29.67;93305.88;5036396;28;20053;-90
2022/04/04 06:00:10;;;;;;;181.27;66.28;;;;;;;15.67;30.29;93295.47;5031386;28;20039;-89
2022/04/04 06:02:36;;;;;;;139.30;61.38;;;;;;;15.71;30.42;93300.69;5050288;28;20045;-89
2022/04/04 06:05:06;;;;;;;148.07;70.00;;;;;;;15.76;31.24;93311.59;5039725;28;20040;-88
2022/04/04 06:07:32;;;;;;;146.43;63.53;;;;;;;15.84;30.74;93297.44;5070501;28;20436;-86
2022/04/04 06:09:58;;;;;;;145.25;72.18;;;;;;;15.91;30.71;93303.16;5076004;28;20056;-90
2022/04/04 06:12:23;;;;;;;418.00;289.13;;;;;;;15.97;31.11;93298.44;5038920;28;20056;-93
2022/04/04 06:14:51;;;;;;;125.45;68.78;;;;;;;15.98;31.15;93296.47;5055952;28;20052;-92
2022/04/04 06:17:16;;;;;;;117.72;60.83;;;;;;;15.98;31.58;93291.75;5040648;28;20036;-92
2022/04/04 06:19:43;;;;;;;126.45;67.63;;;;;;;16.05;30.46;93291.22;5031036;28;20155;-90
2022/04/04 06:22:10;;;;;;;136.00;66.93;;;;;;;16.05;30.73;93298.66;5033100;28;20097;-93
2022/04/04 06:24:35;;;;;;;118.25;60.63;;;;;;;16.02;30.40;93294.22;5038510;28;20175;-92
2022/04/04 06:27:01;;;;;;;105.68;57.63;;;;;;;15.99;30.56;93287.03;5022745;28;20368;-86
2022/04/04 06:29:27;;;;;;;106.30;54.33;;;;;;;15.99;30.15;93284.31;5054718;28;20044;-90
2022/04/04 06:31:55;;;;;;;103.57;55.58;;;;;;;15.93;30.30;93280.84;5026753;28;20064;-90
2022/04/04 06:34:20;;;;;;;103.07;53.38;;;;;;;15.94;30.49;93293.97;5056647;28;20137;-91
2022/04/04 06:36:46;;;;;;;102.30;46.42;;;;;;;15.95;29.62;93286.53;5063385;28;20041;-93
2022/04/04 06:39:12;;;;;;;101.38;50.13;;;;;;;15.96;29.85;93285.31;5031175;28;20045;-91
2022/04/04 06:41:40;;;;;;;73.50;44.47;;;;;;;15.96;31.35;93286.03;5044624;28;20041;-92
2022/04/04 06:44:11;;;;;;;85.47;48.33;;;;;;;16.02;31.67;93288.78;5098359;22;20103;-93
2022/04/04 06:46:37;;;;;;;;;;;;;;;16.05;31.66;93285.03;5057496;28;20048;-90
2022/04/04 06:49:04;;;;;;;113.10;61.72;;;;;;;16.07;30.38;93288.00;5063057;28;19927;-89
2022/04/04 06:51:30;;;;;;;123.35;62.35;;;;;;;16.08;31.15;93292.22;5038004;28;20549;-92
2022/04/04 06:53:55;;;;;;;111.63;54.88;;;;;;;16.06;31.65;93286.50;5035461;28;20127;-90
2022/04/04 06:56:21;;;;;;;112.72;56.85;;;;;;;16.11;31.36;93286.50;5039659;28;20053;-89
2022/04/04 06:58:46;;;;;;;127.75;71.53;;;;;;;16.12;31.28;93284.53;5052388;28;20041;-93
2022/04/04 07:01:13;;;;;;;114.78;63.72;;;;;;;16.13;31.21;93283.28;5039376;28;20538;-91
2022/04/04 07:03:38;;;;;;;145.23;68.50;;;;;;;16.16;31.79;93281.56;5053750;28;20043;-92
2022/04/04 07:06:05;;;;;;;129.60;65.03;;;;;;;16.14;31.85;93284.03;5029518;28;20471;-92
2022/04/04 07:08:31;;;;;;;147.73;70.50;;;;;;;16.19;31.94;93296.91;5033483;28;20530;-91
2022/04/04 07:10:57;;;;;;;132.18;57.95;;;;;;;16.19;32.03;93294.19;5033955;28;20060;-89
2022/04/04 07:13:23;;;;;;;130.45;58.58;;;;;;;16.20;32.15;93296.44;5035729;28;20047;-87
2022/04/04 07:15:48;;;;;;;141.02;61.28;;;;;;;16.21;31.71;93291.72;5038131;28;20043;-90
2022/04/04 07:18:14;;;;;;;126.25;55.03;;;;;;;16.23;31.75;93300.13;5039186;28;20062;-93
2022/04/04 07:20:39;;;;;;;111.32;52.95;;;;;;;16.25;31.75;93289.44;5034469;28;20045;-91
2022/04/04 07:23:05;;;;;;;128.77;55.33;;;;;;;16.25;32.10;93295.66;5009257;28;20037;-91
2022/04/04 07:25:30;;;;;;;119.85;57.30;;;;;;;16.25;31.91;93287.47;4997258;28;20125;-93
2022/04/04 07:28:01;;;;;;;117.93;60.25;;;;;;;16.26;32.15;93288.94;4994799;28;20044;-90
2022/04/04 07:30:27;;;;;;;123.03;60.53;;;;;;;16.27;31.91;93282.25;4988040;28;20724;-92
2022/04/04 07:33:17;;;;;;;121.85;60.38;;;;;;;16.24;31.85;93283.25;4998132;28;20219;-95
2022/04/04 07:35:42;;;;;;;111.53;53.92;;;;;;;16.28;32.09;93289.19;4996266;28;20068;-90
2022/04/04 07:38:09;;;;;;;113.28;54.40;;;;;;;16.30;32.22;93285.97;4978929;28;20041;-92
2022/04/04 07:40:34;;;;;;;139.07;58.58;;;;;;;16.30;32.49;93285.97;4981730;28;20902;-90
2022/04/04 07:43:00;;;;;;;175.05;72.10;;;;;;;16.31;31.93;93285.47;4986536;28;20041;-94
2022/04/04 07:45:27;;;;;;;180.45;79.18;;;;;;;16.32;32.43;93289.69;5006452;28;20053;-91
2022/04/04 07:47:56;;;;;;;184.80;87.38;;;;;;;16.36;32.02;93292.16;4981465;28;20120;-92
2022/04/04 07:50:21;;;;;;;169.88;89.35;;;;;;;16.34;31.96;93276.28;5002944;28;20140;-90
2022/04/04 07:52:47;;;;;;;169.82;88.38;;;;;;;16.34;32.08;93273.56;4988456;28;20053;-90
2022/04/04 07:55:13;;;;;;;159.90;87.15;;;;;;;16.34;32.69;93270.84;5032477;28;20044;-90
2022/04/04 07:57:39;;;;;;;148.15;79.88;;;;;;;16.36;33.01;93276.53;5041884;28;20033;-91
2022/04/04 08:00:17;;;;;;;198.38;80.95;;;;;;;16.33;31.13;93277.53;5048846;28;20543;-91
2022/04/04 08:02:45;;;;;;;171.30;61.72;;;;;;;16.32;32.30;93278.03;5058345;28;20450;-92
2022/04/04 08:05:26;;;;;;;191.50;75.28;;;;;;;16.31;31.15;93271.09;5041261;28;20036;-92
2022/04/04 08:07:53;;;;;;;214.77;84.18;;;;;;;16.32;31.27;93270.59;5016153;28;20044;-89
2022/04/04 08:10:19;;;;;;;130.55;58.22;;;;;;;16.33;30.02;93274.06;5014789;28;20571;-93
2022/04/04 08:12:46;;;;;;;128.35;60.20;;;;;;;16.31;30.41;93265.63;4983331;28;20036;-92
2022/04/04 08:15:11;;;;;;;164.10;63.17;;;;;;;16.31;30.40;93274.56;4996123;28;20050;-92
2022/04/04 08:17:38;;;;;;;127.43;65.55;;;;;;;16.34;30.61;93259.19;5007071;28;20629;-92
2022/04/04 08:20:04;;;;;;;152.68;70.68;;;;;;;16.34;30.92;93262.66;4994159;28;20057;-92
2022/04/04 08:22:30;;;;;;;136.50;65.82;;;;;;;16.32;31.52;93251.50;5001254;28;20033;-92
2022/04/04 08:24:56;;;;;;;138.05;65.20;;;;;;;16.32;32.13;93261.66;4981782;28;20041;-90
2022/04/04 08:27:22;;;;;;;96.13;41.00;;;;;;;16.26;31.50;93258.94;4984706;28;20896;-92
2022/04/04 08:29:47;;;;;;;109.75;48.17;;;;;;;16.29;30.74;93251.75;4980803;28;20059;-93
2022/04/04 08:32:14;;;;;;;161.23;61.95;;;;;;;16.26;30.82;93250.03;4986836;28;20124;-94
2022/04/04 08:34:40;;;;;;;85.57;43.25;;;;;;;16.29;32.12;93247.03;4994012;28;20494;-93
2022/04/04 08:37:07;;;;;;;115.78;51.58;;;;;;;16.33;31.53;93246.78;4988797;28;20041;-93
2022/04/04 08:39:32;;;;;;;130.75;51.35;;;;;;;16.31;31.95;93243.81;5015503;28;20063;-94
2022/04/04 08:41:58;;;;;;;120.45;48.55;;;;;;;16.29;32.90;93257.22;5036105;28;20040;-92
2022/04/04 08:44:24;;;;;;;124.03;54.42;;;;;;;16.32;31.22;93250.75;5017314;28;20112;-91
2022/04/04 08:46:53;;;;;;;147.65;59.75;;;;;;;16.32;31.43;93256.94;4991481;28;20087;-92
2022/04/04 08:49:19;;;;;;;145.90;58.55;;;;;;;16.36;31.87;93249.25;5014898;28;20064;-92
2022/04/04 08:51:44;;;;;;;164.70;57.53;;;;;;;16.39;31.50;93242.06;5026620;28;20072;-92
2022/04/04 08:54:15;;;;;;;129.68;54.88;;;;;;;16.34;31.44;93240.84;5012708;28;20490;-93
2022/04/04 08:56:42;;;;;;;146.25;56.63;;;;;;;16.34;31.53;93238.09;5003059;28;20037;-92
2022/04/04 08:59:07;;;;;;;146.82;53.53;;;;;;;16.36;31.73;93234.88;4966722;28;20124;-90
2022/04/04 09:01:35;;;;;;;140.13;53.58;;;;;;;16.33;31.68;93227.69;4960557;28;20065;-92
2022/04/04 09:04:03;;;;;;;131.02;55.42;;;;;;;16.32;32.24;93235.13;4971274;28;20034;-92
2022/04/04 09:06:33;;;;;;;129.68;56.50;;;;;;;16.32;31.97;93216.03;4986655;28;20045;-90
2022/04/04 09:09:00;;;;;;;124.28;58.38;;;;;;;16.33;31.78;93214.06;4980157;28;20049;-92
2022/04/04 09:11:26;;;;;;;90.47;41.95;;;;;;;16.34;32.89;93219.00;4958189;28;20145;-90
2022/04/04 09:14:06;;;;;;;81.60;39.17;;;;;;;16.35;32.47;93220.50;5000732;28;20046;-90
2022/04/04 09:16:31;;;;;;;151.00;57.28;;;;;;;16.39;31.88;93209.31;5048298;28;20072;-90
2022/04/04 09:18:59;;;;;;;193.95;56.78;;;;;;;16.38;32.24;93211.31;4992335;28;20037;-93
2022/04/04 09:21:29;;;;;;;127.45;47.38;;;;;;;16.38;32.60;93208.59;4998265;28;20151;-93
2022/04/04 09:24:01;;;;;;;141.85;61.83;;;;;;;16.39;32.01;93192.97;5012206;28;20072;-93
2022/04/04 09:26:30;;;;;;;150.45;59.30;;;;;;;16.39;32.23;93203.88;5010315;28;20628;-91
2022/04/04 09:28:58;;;;;;;146.35;60.58;;;;;;;16.40;31.81;93192.47;4972161;28;20486;-92
2022/04/04 09:31:24;;;;;;;146.75;64.97;;;;;;;16.38;32.18;93197.66;4995638;28;20124;-89
2022/04/04 09:34:03;;;;;;;136.75;62.35;;;;;;;16.38;31.88;93192.22;5014410;28;20037;-93
2022/04/04 09:36:29;;;;;;;112.57;46.30;;;;;;;16.38;32.48;93192.22;5006383;28;20041;-95
2022/04/04 09:38:59;;;;;;;143.27;62.28;;;;;;;16.41;32.04;93190.47;4982291;28;20103;-91
2022/04/04 09:41:27;;;;;;;102.68;44.55;;;;;;;16.40;32.82;93189.00;5002979;28;20052;-92
2022/04/04 09:43:55;;;;;;;154.00;57.72;;;;;;;16.43;32.29;93179.81;4995727;28;20049;-92
2022/04/04 09:46:20;;;;;;;116.60;54.47;;;;;;;16.40;32.83;93178.06;5003285;28;20045;-92
2022/04/04 09:49:21;;;;;;;130.95;54.13;;;;;;;16.41;32.96;93176.84;4954058;28;20051;-92
2022/04/04 09:51:51;;;;;;;164.20;57.33;;;;;;;16.39;32.95;93171.13;4958493;28;20501;-92
2022/04/04 09:54:24;;;;;;;155.85;65.13;;;;;;;16.45;32.51;93166.41;4965372;28;20042;-91
2022/04/04 09:56:53;;;;;;;170.23;57.05;;;;;;;16.44;32.60;93165.66;4942897;28;20628;-87
2022/04/04 09:59:19;;;;;;;205.93;69.05;;;;;;;16.45;32.39;93163.66;4982002;28;20474;-92
2022/04/04 10:01:45;;;;;;;169.90;55.00;;;;;;;16.41;32.31;93157.72;5016916;28;20057;-89
2022/04/04 10:04:14;;;;;;;147.90;54.97;;;;;;;16.41;32.47;93155.75;5000524;28;20038;-90
2022/04/04 10:06:41;;;;;;;161.82;61.63;;;;;;;16.39;32.51;93152.78;4992318;28;20058;-91
2022/04/04 10:09:06;;;;;;;149.82;60.28;;;;;;;16.44;32.54;93145.81;4997190;28;20540;-92
2022/04/04 10:11:34;;;;;;;158.25;59.10;;;;;;;16.46;33.85;93143.31;4993904;28;20057;-90
2022/04/04 10:14:00;;;;;;;136.52;55.55;;;;;;;16.44;32.76;93138.38;4998352;28;20080;-89
2022/04/04 10:16:25;;;;;;;108.97;46.83;;;;;;;16.44;32.75;93146.56;5013387;28;20061;-94
2022/04/04 10:18:51;;;;;;;103.43;44.47;;;;;;;16.45;32.84;93134.38;5012365;28;20479;-90
2022/04/04 10:21:18;;;;;;;92.68;40.05;;;;;;;16.48;32.97;93131.88;5012458;28;20087;-90
2022/04/04 10:23:46;;;;;;;100.95;43.10;;;;;;;16.52;32.84;93127.66;5000109;28;20124;-88
2022/04/04 10:26:13;;;;;;;111.72;47.80;;;;;;;16.50;32.13;93121.22;5038701;28;20032;-91
2022/04/04 10:28:38;;;;;;;100.65;43.22;;;;;;;16.52;32.87;93116.72;5067047;28;20041;-89
2022/04/04 10:31:28;;;;;;;102.50;44.58;;;;;;;16.51;32.30;93115.25;5058498;28;20072;-89
2022/04/04 10:33:53;;;;;;;95.38;41.53;;;;;;;16.54;32.55;93113.50;5044318;28;20047;-90
2022/04/04 10:36:23;;;;;;;81.13;40.70;;;;;;;16.55;32.21;93115.00;5031330;28;20045;-90
2022/04/04 10:38:54;;;;;;;84.72;38.10;;;;;;;16.57;32.85;93102.31;5043895;28;20037;-92
2022/04/04 10:41:21;;;;;;;56.85;29.35;;;;;;;16.55;33.68;93101.34;5056237;28;20036;-89
2022/04/04 10:43:51;;;;;;;89.10;45.80;;;;;;;16.58;32.62;93109.25;5055943;28;20060;-92
2022/04/04 10:46:19;;;;;;;69.90;33.47;;;;;;;16.55;32.94;93095.88;5015520;28;20068;-91
2022/04/04 10:48:49;;;;;;;76.28;36.08;;;;;;;16.58;32.42;93097.59;5050353;28;20102;-88
2022/04/04 10:51:18;;;;;;;83.93;35.67;;;;;;;16.56;32.40;93091.91;5033774;28;20470;-91
2022/04/04 10:53:44;;;;;;;66.75;31.92;;;;;;;16.57;32.58;93087.94;5043562;28;20051;-92
2022/04/04 10:56:15;;;;;;;61.15;30.15;;;;;;;16.56;32.83;93089.94;5053667;28;20052;-93
2022/04/04 10:58:42;;;;;;;74.65;34.22;;;;;;;16.55;32.63;93087.69;5034989;28;20037;-90
2022/04/04 11:01:17;;;;;;;96.32;37.28;;;;;;;16.52;32.71;93078.53;5060531;28;20036;-91
2022/04/04 11:03:51;;;;;;;80.15;33.15;;;;;;;16.52;32.83;93077.78;5070890;28;20060;-92
2022/04/04 11:09:22;;;;;;;105.60;37.80;;;;;;;16.52;32.84;93066.88;5075610;28;20044;-90
2022/04/04 11:12:11;;;;;;;92.55;38.58;;;;;;;16.49;32.24;93055.00;5044149;28;20048;-90
2022/04/04 11:14:42;;;;;;;273.00;51.90;;;;;;;16.48;32.66;93063.69;5054240;28;20037;-89
2022/04/04 11:17:26;;;;;;;274.55;52.90;;;;;;;16.47;32.71;93060.22;5030406;28;20084;-93
2022/04/04 11:20:31;;;;;;;132.23;42.00;;;;;;;16.50;33.17;93047.53;5019044;28;20045;-91
2022/04/04 11:23:10;;;;;;;105.50;40.75;;;;;;;16.45;32.66;93033.44;5018772;28;20044;-91